Aldrich, Minnesota
Current Conditions -  °F | °C
As of 12:33 PM on Tuesday 27 Jan 2015 (Local Time) from KSAZ Reporting Station
Overcast Overcast  
Wind Chill: 24°   Ceiling: 1100
Heat Index: 30°   Visibility: 10mi
Dew Point: 27°   Wind: 6mph
Humidity: 86%   Direction: 130°SE
Pressure: 30.1"   Gusts: NA
Location:  46.38°N, 94.94°W
Report Text: KSAZ 271833Z AUTO 13005KT 10SM OVC011 M01/M03 A3010 RMK AO2
Loading
Personal Weather Stations






























Interactive Weather Map New forecast layout! Learn more

10-Day Weather Forecast

Advertisements
Track Severe Weather on mobile